createdAt,value
2022-10-03T00:02:11.934Z,1.10
2022-10-03T00:05:08.030Z,0.80
2022-10-03T00:08:06.992Z,0.80
2022-10-03T00:10:45.605Z,0.70
2022-10-03T00:13:30.976Z,0.87
2022-10-03T00:16:15.852Z,0.83
2022-10-03T00:18:45.586Z,0.87
2022-10-03T00:21:27.644Z,1.00
2022-10-03T00:24:02.906Z,1.13
2022-10-03T00:27:07.310Z,1.20
2022-10-03T00:30:09.744Z,0.90
2022-10-03T00:33:08.851Z,0.93
2022-10-03T00:35:59.942Z,0.80
2022-10-03T00:38:52.690Z,0.70
2022-10-03T00:41:31.444Z,0.80
2022-10-03T00:44:28.422Z,0.80
2022-10-03T00:47:02.125Z,0.97
2022-10-03T00:49:53.359Z,1.03
2022-10-03T00:52:57.385Z,0.97
2022-10-03T00:55:36.171Z,1.20
2022-10-03T00:58:28.772Z,1.30
2022-10-03T01:01:05.373Z,1.10
2022-10-03T01:03:52.007Z,1.30
2022-10-03T01:06:35.708Z,1.10
2022-10-03T01:09:41.948Z,0.97
2022-10-03T01:12:46.855Z,1.00
2022-10-03T01:15:18.245Z,1.07
2022-10-03T01:18:10.331Z,1.00
2022-10-03T01:20:43.379Z,1.07
2022-10-03T01:23:44.451Z,1.20
2022-10-03T01:26:44.893Z,1.20
2022-10-03T01:29:56.969Z,1.23
2022-10-03T01:32:58.980Z,1.10
2022-10-03T01:35:44.290Z,1.03
2022-10-03T01:38:22.427Z,1.13
2022-10-03T01:41:05.679Z,1.03
2022-10-03T01:43:35.441Z,0.93
2022-10-03T01:46:12.673Z,1.00
2022-10-03T01:49:16.327Z,1.00
2022-10-03T01:52:06.489Z,1.00
2022-10-03T01:54:57.995Z,1.00
2022-10-03T01:57:27.606Z,1.17
2022-10-03T01:59:56.739Z,1.27
2022-10-03T02:02:38.517Z,1.07
2022-10-03T02:05:47.919Z,1.17
2022-10-03T02:08:17.445Z,1.30
2022-10-03T02:11:02.284Z,1.07
2022-10-03T02:13:55.632Z,1.27
2022-10-03T02:16:45.021Z,1.30
2022-10-03T02:19:21.565Z,1.27
2022-10-03T02:21:50.995Z,1.53
2022-10-03T02:24:24.723Z,1.40
2022-10-03T02:27:21.607Z,1.47
2022-10-03T02:30:10.039Z,1.47
2022-10-03T02:33:14.144Z,1.53
2022-10-03T02:35:43.963Z,1.60
2022-10-03T02:38:24.259Z,1.90
2022-10-03T02:40:57.205Z,1.83
2022-10-03T02:44:01.213Z,1.90
2022-10-03T02:47:07.206Z,1.97
2022-10-03T02:49:55.091Z,1.87
2022-10-03T02:52:44.424Z,2.00
2022-10-03T02:55:43.775Z,1.90
2022-10-03T02:58:51.844Z,2.07
2022-10-03T03:01:52.919Z,1.90
2022-10-03T03:04:57.340Z,1.97
2022-10-03T03:07:32.604Z,1.90
2022-10-03T03:10:18.102Z,1.77
2022-10-03T03:13:26.246Z,12.53
2022-10-03T03:16:01.638Z,2.60
2022-10-03T03:18:46.447Z,2.10
2022-10-03T03:21:38.899Z,1.90
2022-10-03T03:24:05.837Z,1.60
2022-10-03T03:26:32.433Z,1.10
2022-10-03T03:29:10.470Z,1.10
2022-10-03T03:32:06.457Z,1.30
2022-10-03T03:34:48.297Z,1.60
2022-10-03T03:37:39.667Z,1.80
2022-10-03T03:40:40.576Z,1.87
2022-10-03T03:43:37.282Z,1.70
2022-10-03T03:46:20.229Z,1.50
2022-10-03T03:49:02.681Z,2.10
2022-10-03T03:51:58.868Z,2.03
2022-10-03T03:54:45.141Z,0.97
2022-10-03T03:57:33.203Z,0.90
2022-10-03T04:00:13.185Z,1.00
2022-10-03T04:02:53.155Z,2.00
2022-10-03T04:05:41.594Z,1.40
2022-10-03T04:08:46.084Z,1.50
2022-10-03T04:11:38.143Z,2.33
2022-10-03T04:14:23.741Z,1.03
2022-10-03T04:17:54.319Z,1.73
2022-10-03T04:20:36.054Z,0.50
2022-10-03T04:23:15.218Z,1.30
2022-10-03T04:26:11.149Z,0.60
2022-10-03T04:29:22.223Z,0.47
2022-10-03T04:32:11.617Z,0.60
2022-10-03T04:35:02.808Z,1.00
2022-10-03T04:38:00.760Z,0.77
2022-10-03T04:41:01.513Z,0.47
2022-10-03T04:43:52.603Z,0.67
2022-10-03T04:46:19.156Z,0.60
2022-10-03T04:49:13.396Z,0.50
2022-10-03T04:51:55.512Z,0.70
2022-10-03T04:54:44.880Z,0.63
2022-10-03T04:57:37.983Z,0.67
2022-10-03T05:00:21.537Z,0.90
2022-10-03T05:03:05.525Z,0.73
2022-10-03T05:05:52.549Z,0.80
2022-10-03T05:08:31.095Z,0.57
2022-10-03T05:11:12.997Z,0.70
2022-10-03T05:14:05.744Z,0.80
2022-10-03T05:16:55.540Z,1.00
2022-10-03T05:19:57.839Z,1.03
2022-10-03T05:22:40.428Z,1.13
2022-10-03T05:25:41.975Z,1.10
2022-10-03T05:28:21.538Z,1.00
2022-10-03T05:30:56.149Z,1.10
2022-10-03T05:33:32.333Z,1.63
2022-10-03T05:36:12.198Z,1.50
2022-10-03T05:38:58.977Z,1.40
2022-10-03T05:41:32.850Z,1.50
2022-10-03T05:44:19.444Z,1.30
2022-10-03T05:47:32.386Z,1.37
2022-10-03T05:50:31.422Z,1.53
2022-10-03T05:53:16.633Z,1.47
2022-10-03T05:56:04.822Z,1.40
2022-10-03T05:58:40.592Z,1.47
2022-10-03T06:01:26.079Z,1.27
2022-10-03T06:04:05.706Z,1.00
2022-10-03T06:06:51.357Z,1.50
2022-10-03T06:09:36.732Z,1.43
2022-10-03T06:12:10.154Z,1.60
2022-10-03T06:14:58.571Z,2.03
2022-10-03T06:17:42.202Z,1.70
2022-10-03T06:21:01.096Z,1.40
2022-10-03T06:24:06.372Z,1.30
2022-10-03T06:27:02.603Z,1.00
2022-10-03T06:29:47.673Z,1.13
2022-10-03T06:32:46.111Z,0.97
2022-10-03T06:35:43.753Z,1.00
2022-10-03T06:38:31.680Z,1.03
2022-10-03T06:41:10.405Z,1.03
2022-10-03T06:43:44.073Z,1.27
2022-10-03T06:46:30.799Z,1.00
2022-10-03T06:49:19.274Z,0.80
2022-10-03T06:52:04.660Z,0.70
2022-10-03T06:54:31.184Z,1.00
2022-10-03T06:57:03.552Z,1.37
2022-10-03T06:59:45.947Z,1.17
2022-10-03T07:03:00.437Z,0.90
2022-10-03T07:06:04.474Z,1.20
2022-10-03T07:08:45.341Z,1.10
2022-10-03T07:11:43.951Z,1.47
2022-10-03T07:14:55.394Z,1.10
2022-10-03T07:17:56.713Z,1.20
2022-10-03T07:20:47.643Z,1.30
2022-10-03T07:23:49.344Z,1.73
2022-10-03T07:26:41.100Z,1.60
2022-10-03T07:29:27.236Z,1.70
2022-10-03T07:32:14.053Z,1.70
2022-10-03T07:35:05.287Z,1.90
2022-10-03T07:37:59.408Z,1.77
2022-10-03T07:40:59.720Z,2.27
2022-10-03T07:44:04.130Z,2.50
2022-10-03T07:46:33.654Z,1.90
2022-10-03T07:49:17.625Z,2.23
2022-10-03T07:52:03.475Z,1.83
2022-10-03T07:54:39.127Z,1.90
2022-10-03T07:57:55.140Z,1.57
2022-10-03T08:00:26.753Z,1.67
2022-10-03T08:03:08.777Z,1.80
2022-10-03T08:06:13.701Z,2.10
2022-10-03T08:09:04.366Z,1.90
2022-10-03T08:11:49.722Z,1.77
2022-10-03T08:14:32.053Z,1.33
2022-10-03T08:17:29.469Z,1.57
2022-10-03T08:20:21.532Z,1.60
2022-10-03T08:23:15.077Z,1.50
2022-10-03T08:26:28.130Z,1.50
2022-10-03T08:29:10.157Z,1.40
2022-10-03T08:31:58.067Z,1.40
2022-10-03T08:34:46.289Z,1.40
2022-10-03T08:37:16.072Z,1.73
2022-10-03T08:40:05.163Z,1.33
2022-10-03T08:42:56.267Z,1.47
2022-10-03T08:45:52.036Z,1.30
2022-10-03T08:48:53.014Z,1.50
2022-10-03T08:51:53.114Z,1.40
2022-10-03T08:54:28.764Z,1.40
2022-10-03T08:57:10.253Z,1.30
2022-10-03T09:00:05.988Z,1.80
2022-10-03T09:03:26.980Z,2.03
2022-10-03T09:05:51.749Z,1.90
2022-10-03T09:08:43.983Z,1.73
2022-10-03T09:11:33.230Z,1.77
2022-10-03T09:14:21.548Z,1.73
2022-10-03T09:17:00.396Z,1.77
2022-10-03T09:19:38.709Z,2.20
2022-10-03T09:22:33.960Z,2.20
2022-10-03T09:25:13.505Z,1.70
2022-10-03T09:28:23.152Z,1.70
2022-10-03T09:31:04.244Z,1.77
2022-10-03T09:34:08.021Z,2.00
2022-10-03T09:36:56.364Z,1.63
2022-10-03T09:39:52.358Z,1.80
2022-10-03T09:42:43.671Z,2.10
2022-10-03T09:45:13.407Z,1.93
2022-10-03T09:48:11.259Z,2.40
2022-10-03T09:50:55.418Z,2.60
2022-10-03T09:54:03.446Z,2.20
2022-10-03T09:57:18.487Z,2.10
2022-10-03T10:00:01.866Z,2.10
2022-10-03T10:03:03.387Z,2.50
2022-10-03T10:06:04.009Z,2.60
2022-10-03T10:09:04.776Z,2.83
2022-10-03T10:11:57.095Z,2.43
2022-10-03T10:14:52.725Z,2.70
2022-10-03T10:17:47.276Z,2.77
2022-10-03T10:20:41.961Z,2.57
2022-10-03T10:23:10.414Z,2.50
2022-10-03T10:25:39.946Z,2.67
2022-10-03T10:28:44.148Z,3.20
2022-10-03T10:31:25.982Z,3.20
2022-10-03T10:33:52.763Z,3.20
2022-10-03T10:36:44.518Z,2.47
2022-10-03T10:39:29.359Z,2.10
2022-10-03T10:42:04.776Z,2.20
2022-10-03T10:44:40.605Z,2.50
2022-10-03T10:47:14.642Z,1.97
2022-10-03T10:49:50.271Z,2.00
2022-10-03T10:52:56.072Z,1.57
2022-10-03T10:55:46.349Z,1.97
2022-10-03T10:58:37.824Z,1.77
2022-10-03T11:01:36.333Z,1.80
2022-10-03T11:04:30.184Z,1.80
2022-10-03T11:07:11.999Z,1.80
2022-10-03T11:09:56.098Z,1.93
2022-10-03T11:12:39.389Z,2.17
2022-10-03T11:15:31.033Z,2.13
2022-10-03T11:18:22.675Z,1.87
2022-10-03T11:21:08.047Z,2.10
2022-10-03T11:23:57.816Z,1.80
2022-10-03T11:26:36.639Z,1.27
2022-10-03T11:29:25.493Z,1.67
2022-10-03T11:31:52.309Z,2.33
2022-10-03T11:34:42.726Z,1.70
2022-10-03T11:37:50.620Z,1.23
2022-10-03T11:40:45.153Z,1.30
2022-10-03T11:43:42.219Z,1.33
2022-10-03T11:46:34.107Z,1.50
2022-10-03T11:49:06.819Z,1.20
2022-10-03T11:51:43.842Z,1.20
2022-10-03T11:54:31.564Z,1.10
2022-10-03T11:57:10.139Z,1.10
2022-10-03T12:00:06.123Z,1.40
2022-10-03T12:02:40.189Z,0.90
2022-10-03T12:05:28.417Z,1.23
2022-10-03T12:08:25.889Z,0.97
2022-10-03T12:11:24.392Z,1.10
2022-10-03T12:14:11.587Z,0.90
2022-10-03T12:17:05.895Z,1.00
2022-10-03T12:20:11.130Z,1.10
2022-10-03T12:22:56.705Z,1.20
2022-10-03T12:25:32.164Z,1.20
2022-10-03T12:28:04.977Z,1.20
2022-10-03T12:30:47.599Z,1.40
2022-10-03T12:33:42.017Z,0.90
2022-10-03T12:36:55.926Z,1.10
2022-10-03T12:39:25.738Z,1.10
2022-10-03T12:42:10.920Z,1.20
2022-10-03T12:44:57.300Z,1.10
2022-10-03T12:47:55.317Z,0.90
2022-10-03T12:50:41.772Z,1.40
2022-10-03T12:53:25.418Z,1.03
2022-10-03T12:56:02.288Z,0.90
2022-10-03T12:58:50.939Z,1.40
2022-10-03T13:01:26.646Z,1.20
2022-10-03T13:03:56.513Z,1.10
2022-10-03T13:07:01.163Z,1.10
2022-10-03T13:09:45.667Z,0.97
2022-10-03T13:12:29.859Z,1.00
2022-10-03T13:15:34.390Z,1.10
2022-10-03T13:18:19.268Z,1.00
2022-10-03T13:21:43.977Z,1.33
2022-10-03T13:24:12.913Z,1.40
2022-10-03T13:27:08.444Z,1.20
2022-10-03T13:29:54.778Z,1.20
2022-10-03T13:32:33.031Z,1.30
2022-10-03T13:35:21.836Z,1.30
2022-10-03T13:38:32.721Z,1.47
2022-10-03T13:41:43.190Z,1.33
2022-10-03T13:44:18.044Z,1.30
2022-10-03T13:46:53.592Z,1.40
2022-10-03T13:49:35.911Z,1.10
2022-10-03T13:52:07.606Z,1.90
2022-10-03T13:54:56.119Z,1.60
2022-10-03T13:57:44.995Z,1.40
2022-10-03T14:00:17.837Z,1.40
2022-10-03T14:03:03.099Z,1.33
2022-10-03T14:06:04.191Z,1.10
2022-10-03T14:08:52.114Z,1.40
2022-10-03T14:11:27.474Z,1.33
2022-10-03T14:14:03.098Z,3.07
2022-10-03T14:16:34.344Z,2.00
2022-10-03T14:19:07.163Z,1.40
2022-10-03T14:22:07.233Z,1.70
2022-10-03T14:25:16.145Z,1.50
2022-10-03T14:27:54.888Z,1.60
2022-10-03T14:30:24.998Z,1.53
2022-10-03T14:33:14.246Z,3.57
2022-10-03T14:36:07.021Z,1.53
2022-10-03T14:38:58.070Z,2.07
2022-10-03T14:41:50.825Z,1.60
2022-10-03T14:44:46.735Z,2.20
2022-10-03T14:47:21.981Z,3.10
2022-10-03T14:49:59.433Z,1.83
2022-10-03T14:52:29.477Z,1.77
2022-10-03T14:55:00.402Z,1.90
2022-10-03T14:57:59.081Z,1.70
2022-10-03T15:00:48.856Z,1.67
2022-10-03T15:03:20.306Z,1.30
2022-10-03T15:06:35.258Z,1.30
2022-10-03T15:09:14.012Z,1.70
2022-10-03T15:11:48.721Z,2.13
2022-10-03T15:14:15.583Z,1.60
2022-10-03T15:16:54.053Z,1.50
2022-10-03T15:19:44.442Z,2.00
2022-10-03T15:22:35.475Z,1.97
2022-10-03T15:25:20.003Z,1.90
2022-10-03T15:27:53.291Z,1.60
2022-10-03T15:30:36.301Z,1.73
2022-10-03T15:33:32.983Z,1.43
2022-10-03T15:36:26.901Z,1.40
2022-10-03T15:38:57.387Z,1.50
2022-10-03T15:41:51.567Z,1.60
2022-10-03T15:44:24.171Z,1.80
2022-10-03T15:46:59.937Z,1.53
2022-10-03T15:49:36.599Z,1.50
2022-10-03T15:52:31.381Z,1.27
2022-10-03T15:55:11.576Z,1.50
2022-10-03T15:57:46.353Z,1.50
2022-10-03T16:00:34.286Z,1.43
2022-10-03T16:03:13.346Z,1.50
2022-10-03T16:06:17.683Z,1.40
2022-10-03T16:09:13.440Z,1.63
2022-10-03T16:12:06.487Z,1.50
2022-10-03T16:14:52.862Z,1.37
2022-10-03T16:17:46.622Z,1.53
2022-10-03T16:20:26.476Z,1.40
2022-10-03T16:23:19.275Z,1.90
2022-10-03T16:25:48.758Z,1.63
2022-10-03T16:28:20.727Z,1.60
2022-10-03T16:30:54.529Z,1.60
2022-10-03T16:33:32.307Z,1.57
2022-10-03T16:36:16.841Z,1.70
2022-10-03T16:38:51.839Z,1.50
2022-10-03T16:41:24.613Z,1.63
2022-10-03T16:44:00.017Z,1.53
2022-10-03T16:46:35.506Z,1.90
2022-10-03T16:49:30.572Z,1.93
2022-10-03T16:52:04.584Z,2.03
2022-10-03T16:54:33.450Z,2.73
2022-10-03T16:57:03.258Z,7.60
2022-10-03T16:59:31.253Z,14.60
2022-10-03T17:02:05.076Z,12.80
2022-10-03T17:05:01.292Z,9.00
2022-10-03T17:07:39.586Z,7.27
2022-10-03T17:10:21.618Z,13.73
2022-10-03T17:12:53.196Z,18.17
2022-10-03T17:15:23.632Z,15.70
2022-10-03T17:17:59.975Z,9.07
2022-10-03T17:20:48.306Z,7.07
2022-10-03T17:23:20.907Z,4.57
2022-10-03T17:25:51.525Z,3.20
2022-10-03T17:28:45.430Z,3.10
2022-10-03T17:31:34.723Z,2.77
2022-10-03T17:34:19.541Z,2.53
2022-10-03T17:37:17.346Z,2.73
2022-10-03T17:39:54.458Z,2.40
2022-10-03T17:42:48.877Z,2.27
2022-10-03T17:45:33.417Z,2.43
2022-10-03T17:48:17.228Z,2.50
2022-10-03T17:50:46.933Z,2.10
2022-10-03T17:53:22.275Z,2.67
2022-10-03T17:55:55.886Z,2.77
2022-10-03T17:58:25.527Z,2.50
2022-10-03T18:01:06.247Z,3.07
2022-10-03T18:03:50.830Z,2.17
2022-10-03T18:06:30.040Z,2.23
2022-10-03T18:08:56.785Z,2.50
2022-10-03T18:11:28.655Z,2.57
2022-10-03T18:14:14.907Z,2.73
2022-10-03T18:16:56.789Z,3.23
2022-10-03T18:19:32.726Z,2.50
2022-10-03T18:22:12.435Z,2.83
2022-10-03T18:24:56.185Z,3.10
2022-10-03T18:27:53.410Z,3.13
2022-10-03T18:30:27.650Z,2.67
2022-10-03T18:32:58.204Z,3.50
2022-10-03T18:35:36.176Z,3.30
2022-10-03T18:38:23.702Z,2.57
2022-10-03T18:40:52.803Z,2.67
2022-10-03T18:43:27.714Z,3.00
2022-10-03T18:46:07.949Z,3.30
2022-10-03T18:48:41.684Z,3.00
2022-10-03T18:51:26.775Z,3.33
2022-10-03T18:54:20.879Z,2.37
2022-10-03T18:57:05.710Z,2.53
2022-10-03T18:59:38.457Z,3.00
2022-10-03T19:02:06.014Z,3.97
2022-10-03T19:04:40.305Z,2.73
2022-10-03T19:07:29.931Z,4.30
2022-10-03T19:10:20.866Z,21.17
2022-10-03T19:12:55.837Z,7.30
2022-10-03T19:15:38.929Z,3.60
2022-10-03T19:18:21.146Z,6.80
2022-10-03T19:20:52.068Z,15.80
2022-10-03T19:23:27.451Z,5.70
2022-10-03T19:25:57.975Z,3.20
2022-10-03T19:28:33.675Z,3.93
2022-10-03T19:31:33.042Z,4.17
2022-10-03T19:34:04.255Z,3.53
2022-10-03T19:36:34.903Z,3.50
2022-10-03T19:39:02.495Z,3.50
2022-10-03T19:42:18.358Z,3.37
2022-10-03T19:44:45.133Z,3.33
2022-10-03T19:47:18.568Z,3.60
2022-10-03T19:50:00.329Z,3.33
2022-10-03T19:52:32.951Z,3.40
2022-10-03T19:55:12.175Z,3.53
2022-10-03T19:57:43.163Z,3.40
2022-10-03T20:00:16.031Z,3.53
2022-10-03T20:02:44.576Z,3.70
2022-10-03T20:05:25.206Z,3.50
2022-10-03T20:08:02.057Z,3.47
2022-10-03T20:10:45.762Z,3.30
2022-10-03T20:13:12.961Z,3.47
2022-10-03T20:15:48.463Z,3.60
2022-10-03T20:18:33.879Z,3.20
2022-10-03T20:21:03.029Z,3.10
2022-10-03T20:23:32.855Z,2.90
2022-10-03T20:26:10.216Z,3.10
2022-10-03T20:29:00.871Z,3.30
2022-10-03T20:31:30.106Z,2.87
2022-10-03T20:34:00.306Z,3.50
2022-10-03T20:36:36.341Z,3.33
2022-10-03T20:39:21.074Z,5.10
2022-10-03T20:41:54.212Z,3.17
2022-10-03T20:44:36.523Z,3.37
2022-10-03T20:47:14.094Z,3.50
2022-10-03T20:49:48.386Z,3.00
2022-10-03T20:52:24.792Z,3.27
2022-10-03T20:54:57.795Z,3.47
2022-10-03T20:57:50.266Z,3.57
2022-10-03T21:00:24.939Z,3.50
2022-10-03T21:03:09.900Z,3.00
2022-10-03T21:05:41.137Z,3.23
2022-10-03T21:08:13.931Z,3.47
2022-10-03T21:10:47.546Z,3.67
2022-10-03T21:13:26.515Z,3.43
2022-10-03T21:15:59.676Z,3.83
2022-10-03T21:18:37.742Z,3.17
2022-10-03T21:21:27.071Z,3.87
2022-10-03T21:24:06.625Z,3.63
2022-10-03T21:27:01.287Z,3.83
2022-10-03T21:29:34.187Z,3.43
2022-10-03T21:32:22.268Z,3.63
2022-10-03T21:34:59.574Z,3.80
2022-10-03T21:37:29.756Z,4.00
2022-10-03T21:40:17.597Z,3.83
2022-10-03T21:42:44.192Z,3.40
2022-10-03T21:45:27.044Z,4.23
2022-10-03T21:48:14.667Z,4.13
2022-10-03T21:50:54.915Z,3.93
2022-10-03T21:53:47.455Z,4.07
2022-10-03T21:56:17.051Z,4.13
2022-10-03T21:58:58.637Z,4.43
2022-10-03T22:01:36.551Z,5.27
2022-10-03T22:04:34.105Z,4.27
2022-10-03T22:07:17.210Z,4.27
2022-10-03T22:09:50.201Z,4.53
2022-10-03T22:12:21.224Z,4.80
2022-10-03T22:15:26.284Z,4.20
2022-10-03T22:18:11.629Z,4.53
2022-10-03T22:20:59.993Z,4.53
2022-10-03T22:23:45.858Z,5.00
2022-10-03T22:26:27.469Z,4.53
2022-10-03T22:29:13.226Z,5.27
2022-10-03T22:31:48.010Z,4.90
2022-10-03T22:34:35.198Z,4.13
2022-10-03T22:37:02.703Z,5.10
2022-10-03T22:39:30.198Z,4.63
2022-10-03T22:42:00.798Z,4.90
2022-10-03T22:44:32.385Z,4.67
2022-10-03T22:47:05.547Z,4.60
2022-10-03T22:49:32.089Z,4.37
2022-10-03T22:52:02.944Z,5.23
2022-10-03T22:54:42.579Z,4.93
2022-10-03T22:57:12.321Z,4.73
2022-10-03T22:59:47.318Z,4.63
2022-10-03T23:02:15.524Z,4.67
2022-10-03T23:04:53.835Z,4.73
2022-10-03T23:07:37.650Z,5.07
2022-10-03T23:10:33.244Z,4.60
2022-10-03T23:13:17.215Z,4.67
2022-10-03T23:15:49.014Z,5.37
2022-10-03T23:18:21.684Z,5.13
2022-10-03T23:21:11.048Z,5.17
2022-10-03T23:24:17.673Z,5.10
2022-10-03T23:27:03.731Z,4.50
2022-10-03T23:29:30.575Z,5.07
2022-10-03T23:32:00.318Z,4.60
2022-10-03T23:34:32.915Z,4.50
2022-10-03T23:37:04.822Z,5.00
2022-10-03T23:39:35.183Z,4.77
2022-10-03T23:42:09.800Z,5.90
2022-10-03T23:44:49.697Z,4.70
2022-10-03T23:47:20.814Z,4.77
2022-10-03T23:49:50.402Z,5.00
2022-10-03T23:52:30.757Z,4.80
2022-10-03T23:55:02.937Z,5.10
2022-10-03T23:57:35.214Z,5.10
